Wetterdaten: Woche 25.09.23 - 01.10.23 (KW39)
Datum Zeit Temp. Aussen Temp. o. S. Temp +5cm Feuchte Auss Luftdruck Regen Sonnenschein Regendauer Solar Windben Empfang
25.09.2023 00:00 13,5 C 12,5 C 9,3 C 83 % 1023,1 hPa 0,0 l/m 0,00 h 0,00 h 0 W/m 6,1 km/h (2 Bft) 98,45 %
25.09.2023 01:00 13,0 C 12,1 C 8,9 C 85 % 1022,9 hPa 0,0 l/m 0,00 h 0,00 h 0 W/m 8,1 km/h (2 Bft) 95,89 %
25.09.2023 02:00 12,6 C 11,7 C 8,3 C 87 % 1022,8 hPa 0,0 l/m 0,00 h 0,00 h 0 W/m 7,8 km/h (2 Bft) 97,72 %
25.09.2023 03:00 12,5 C 11,7 C 8,3 C 87 % 1023,0 hPa 0,0 l/m 0,00 h 0,00 h 0 W/m 8,0 km/h (2 Bft) 98,52 %
25.09.2023 04:00 12,0 C 10,9 C 8,0 C 87 % 1023,2 hPa 0,0 l/m 0,00 h 0,00 h 0 W/m 4,1 km/h (1 Bft) 95,66 %
25.09.2023 05:00 11,5 C 10,6 C 7,4 C 90 % 1023,0 hPa 0,0 l/m 0,00 h 0,00 h 0 W/m 7,5 km/h (2 Bft) 98,87 %
25.09.2023 06:00 11,6 C 11,0 C 7,8 C 89 % 1023,0 hPa 0,0 l/m 0,00 h 0,00 h 0 W/m 8,8 km/h (2 Bft) 97,33 %
25.09.2023 07:00 11,7 C 11,0 C 7,8 C 88 % 1023,1 hPa 0,0 l/m 0,00 h 0,00 h 13 W/m 6,0 km/h (2 Bft) 98,05 %
25.09.2023 08:00 12,0 C 11,8 C 8,3 C 89 % 1023,3 hPa 0,0 l/m 0,00 h 0,00 h 56 W/m 9,3 km/h (2 Bft) 96,51 %
25.09.2023 09:00 13,6 C 13,5 C 9,5 C 84 % 1023,5 hPa 0,0 l/m 0,03 h 0,00 h 96 W/m 14,2 km/h (3 Bft) 98,10 %
25.09.2023 10:00 15,1 C 15,3 C 10,9 C 79 % 1023,5 hPa 0,0 l/m 0,00 h 0,00 h 176 W/m 15,8 km/h (3 Bft) 96,16 %
25.09.2023 11:00 17,0 C 19,9 C 14,0 C 73 % 1023,3 hPa 0,0 l/m 0,70 h 0,00 h 353 W/m 14,9 km/h (3 Bft) 96,94 %
25.09.2023 12:00 19,0 C 19,6 C 14,6 C 68 % 1022,8 hPa 0,0 l/m 0,30 h 0,00 h 233 W/m 13,1 km/h (3 Bft) 97,73 %
25.09.2023 13:00 19,9 C 19,9 C 15,0 C 66 % 1022,8 hPa 0,0 l/m 0,17 h 0,00 h 240 W/m 11,7 km/h (2 Bft) 97,41 %
25.09.2023 14:00 21,3 C 22,6 C 15,7 C 62 % 1022,7 hPa 0,0 l/m 1,00 h 0,00 h 583 W/m 9,1 km/h (2 Bft) 97,79 %
25.09.2023 15:00 22,1 C 21,7 C 16,0 C 57 % 1022,8 hPa 0,0 l/m 1,00 h 0,00 h 466 W/m 6,1 km/h (2 Bft) 96,32 %
25.09.2023 16:00 22,0 C 21,5 C 16,0 C 58 % 1022,7 hPa 0,0 l/m 0,97 h 0,00 h 352 W/m 4,7 km/h (1 Bft) 98,16 %
25.09.2023 17:00 22,1 C 23,3 C 15,3 C 57 % 1022,5 hPa 0,0 l/m 1,00 h 0,00 h 281 W/m 3,9 km/h (1 Bft) 98,30 %
25.09.2023 18:00 21,7 C 19,7 C 14,2 C 61 % 1022,5 hPa 0,0 l/m 0,50 h 0,00 h 67 W/m 2,4 km/h (1 Bft) 95,21 %
25.09.2023 19:00 19,5 C 16,2 C 11,9 C 72 % 1022,7 hPa 0,0 l/m 0,00 h 0,00 h 8 W/m 0,0 km/h (0 Bft) 99,11 %
25.09.2023 20:00 16,8 C 14,1 C 10,3 C 80 % 1023,1 hPa 0,0 l/m 0,00 h 0,00 h 0 W/m 0,0 km/h (0 Bft) 95,33 %
25.09.2023 21:00 15,1 C 13,0 C 9,5 C 86 % 1023,1 hPa 0,0 l/m 0,00 h 0,00 h 0 W/m 0,0 km/h (0 Bft) 98,93 %
25.09.2023 22:00 14,1 C 12,4 C 9,0 C 89 % 1023,1 hPa 0,0 l/m 0,00 h 0,00 h 0 W/m 0,0 km/h (0 Bft) 97,00 %
25.09.2023 23:00 13,4 C 12,2 C 8,9 C 91 % 1023,0 hPa 0,0 l/m 0,00 h 0,00 h 0 W/m 0,0 km/h (0 Bft) 98,44 %
26.09.2023 00:00 12,9 C 12,2 C 8,7 C 93 % 1022,8 hPa 0,0 l/m 0,00 h 0,00 h 0 W/m 1,1 km/h (0 Bft) 95,70 %
26.09.2023 01:00 12,9 C 12,5 C 9,0 C 93 % 1022,7 hPa 0,0 l/m 0,00 h 0,00 h 0 W/m 1,8 km/h (1 Bft) 98,68 %
26.09.2023 02:00 12,8 C 12,2 C 8,9 C 92 % 1022,8 hPa 0,0 l/m 0,00 h 0,00 h 0 W/m 2,8 km/h (1 Bft) 97,92 %
26.09.2023 03:00 12,7 C 12,2 C 8,9 C 92 % 1022,5 hPa 0,0 l/m 0,00 h 0,00 h 0 W/m 4,1 km/h (1 Bft) 96,86 %
26.09.2023 04:00 12,5 C 11,7 C 8,5 C 91 % 1022,2 hPa 0,0 l/m 0,00 h 0,00 h 0 W/m 5,3 km/h (1 Bft) 97,30 %
26.09.2023 05:00 12,1 C 11,3 C 8,3 C 92 % 1021,9 hPa 0,0 l/m 0,00 h 0,00 h 0 W/m 4,2 km/h (1 Bft) 98,58 %
26.09.2023 06:00 11,8 C 11,0 C 7,8 C 92 % 1021,9 hPa 0,0 l/m 0,00 h 0,00 h 0 W/m 6,3 km/h (2 Bft) 94,93 %
26.09.2023 07:00 11,6 C 10,7 C 7,8 C 93 % 1021,8 hPa 0,0 l/m 0,00 h 0,00 h 12 W/m 6,4 km/h (2 Bft) 97,14 %
26.09.2023 08:00 11,8 C 11,5 C 8,1 C 93 % 1021,7 hPa 0,0 l/m 0,00 h 0,00 h 35 W/m 6,4 km/h (2 Bft) 97,27 %
26.09.2023 09:00 13,0 C 13,3 C 9,4 C 91 % 1021,7 hPa 0,0 l/m 0,03 h 0,00 h 72 W/m 8,9 km/h (2 Bft) 96,85 %
26.09.2023 10:00 15,0 C 15,6 C 11,0 C 85 % 1021,6 hPa 0,0 l/m 0,07 h 0,00 h 123 W/m 10,4 km/h (2 Bft) 97,45 %
26.09.2023 11:00 17,5 C 22,7 C 15,3 C 79 % 1021,3 hPa 0,0 l/m 0,57 h 0,00 h 351 W/m 8,3 km/h (2 Bft) 99,79 %
26.09.2023 12:00 20,1 C 21,2 C 15,4 C 71 % 1020,9 hPa 0,0 l/m 0,20 h 0,00 h 147 W/m 8,2 km/h (2 Bft) 94,74 %
26.09.2023 13:00 21,0 C 20,6 C 15,6 C 70 % 1020,6 hPa 0,0 l/m 0,17 h 0,00 h 172 W/m 9,3 km/h (2 Bft) 99,08 %
26.09.2023 14:00 22,7 C 23,6 C 16,8 C 66 % 1020,3 hPa 0,0 l/m 1,00 h 0,00 h 594 W/m 10,0 km/h (2 Bft) 97,68 %
26.09.2023 15:00 23,1 C 22,8 C 17,2 C 63 % 1020,0 hPa 0,0 l/m 0,80 h 0,00 h 328 W/m 7,4 km/h (2 Bft) 96,87 %
26.09.2023 16:00 23,0 C 22,8 C 17,2 C 63 % 1019,8 hPa 0,0 l/m 0,58 h 0,00 h 221 W/m 4,6 km/h (1 Bft) 97,49 %
26.09.2023 17:00 23,0 C 22,2 C 16,6 C 66 % 1019,7 hPa 0,0 l/m 0,07 h 0,00 h 118 W/m 3,0 km/h (1 Bft) 97,69 %
26.09.2023 18:00 22,2 C 20,2 C 14,9 C 74 % 1019,6 hPa 0,0 l/m 0,00 h 0,00 h 46 W/m 0,4 km/h (0 Bft) 97,08 %
26.09.2023 19:00 20,3 C 17,9 C 13,5 C 82 % 1019,6 hPa 0,0 l/m 0,00 h 0,00 h 8 W/m 0,0 km/h (0 Bft) 98,10 %
26.09.2023 20:00 18,7 C 16,7 C 12,5 C 87 % 1019,7 hPa 0,0 l/m 0,00 h 0,00 h 0 W/m 0,0 km/h (0 Bft) 94,42 %
26.09.2023 21:00 17,5 C 15,8 C 11,8 C 89 % 1020,1 hPa 0,0 l/m 0,00 h 0,00 h 0 W/m 0,0 km/h (0 Bft) 97,80 %
26.09.2023 22:00 16,7 C 15,1 C 11,2 C 91 % 1020,3 hPa 0,0 l/m 0,00 h 0,00 h 0 W/m 0,0 km/h (0 Bft) 98,25 %
26.09.2023 23:00 16,0 C 14,9 C 11,1 C 93 % 1020,2 hPa 0,0 l/m 0,00 h 0,00 h 0 W/m 1,4 km/h (1 Bft) 96,09 %
27.09.2023 00:00 15,3 C 13,7 C 10,2 C 93 % 1020,6 hPa 0,0 l/m 0,00 h 0,00 h 0 W/m 0,1 km/h (0 Bft) 98,59 %
27.09.2023 01:00 14,6 C 13,5 C 10,0 C 93 % 1020,3 hPa 0,0 l/m 0,00 h 0,00 h 0 W/m 0,8 km/h (0 Bft) 98,01 %
27.09.2023 02:00 14,2 C 12,9 C 9,6 C 95 % 1020,6 hPa 0,0 l/m 0,00 h 0,00 h 0 W/m 0,1 km/h (0 Bft) 96,42 %
27.09.2023 03:00 13,5 C 12,2 C 9,0 C 95 % 1020,9 hPa 0,0 l/m 0,00 h 0,00 h 0 W/m 0,0 km/h (0 Bft) 97,49 %
27.09.2023 04:00 13,1 C 12,1 C 8,9 C 95 % 1020,7 hPa 0,0 l/m 0,00 h 0,00 h 0 W/m 0,8 km/h (0 Bft) 97,95 %
27.09.2023 05:00 13,0 C 12,1 C 8,9 C 96 % 1020,4 hPa 0,0 l/m 0,00 h 0,00 h 0 W/m 1,8 km/h (1 Bft) 97,64 %
27.09.2023 06:00 13,0 C 12,0 C 9,0 C 97 % 1020,6 hPa 0,0 l/m 0,00 h 0,00 h 0 W/m 1,8 km/h (1 Bft) 95,80 %
27.09.2023 07:00 12,6 C 11,7 C 8,6 C 97 % 1020,8 hPa 0,0 l/m 0,27 h 0,00 h 21 W/m 0,0 km/h (0 Bft) 97,31 %
27.09.2023 08:00 13,1 C 12,9 C 9,6 C 98 % 1020,7 hPa 0,0 l/m 0,03 h 0,00 h 26 W/m 3,6 km/h (1 Bft) 97,11 %
27.09.2023 09:00 14,0 C 14,4 C 10,7 C 98 % 1020,7 hPa 0,0 l/m 0,10 h 0,00 h 106 W/m 5,6 km/h (1 Bft) 96,53 %
27.09.2023 10:00 15,6 C 16,6 C 12,4 C 97 % 1020,3 hPa 0,0 l/m 0,07 h 0,00 h 160 W/m 5,4 km/h (1 Bft) 98,36 %
27.09.2023 11:00 17,9 C 23,0 C 16,6 C 90 % 1020,2 hPa 0,0 l/m 0,47 h 0,00 h 357 W/m 5,3 km/h (1 Bft) 97,30 %
27.09.2023 12:00 20,5 C 22,1 C 16,6 C 78 % 1020,0 hPa 0,0 l/m 0,17 h 0,00 h 245 W/m 7,0 km/h (2 Bft) 95,93 %
27.09.2023 13:00 21,9 C 22,4 C 17,2 C 74 % 1019,2 hPa 0,0 l/m 0,20 h 0,00 h 308 W/m 6,0 km/h (2 Bft) 99,48 %
27.09.2023 14:00 23,7 C 24,5 C 18,2 C 66 % 1018,4 hPa 0,0 l/m 0,65 h 0,00 h 463 W/m 8,4 km/h (2 Bft) 95,99 %
27.09.2023 15:00 23,7 C 23,5 C 18,1 C 66 % 1017,6 hPa 0,0 l/m 0,80 h 0,00 h 339 W/m 7,7 km/h (2 Bft) 97,58 %
27.09.2023 16:00 24,2 C 23,7 C 18,4 C 66 % 1017,1 hPa 0,0 l/m 0,90 h 0,00 h 333 W/m 5,0 km/h (1 Bft) 97,65 %
27.09.2023 17:00 24,0 C 23,4 C 17,7 C 70 % 1016,6 hPa 0,0 l/m 0,70 h 0,00 h 184 W/m 5,3 km/h (1 Bft) 98,70 %
27.09.2023 18:00 22,4 C 19,9 C 15,4 C 77 % 1016,4 hPa 0,0 l/m 0,00 h 0,00 h 35 W/m 0,3 km/h (0 Bft) 97,04 %
27.09.2023 19:00 20,2 C 17,9 C 13,8 C 82 % 1016,0 hPa 0,0 l/m 0,00 h 0,00 h 9 W/m 0,2 km/h (0 Bft) 97,12 %
27.09.2023 20:00 18,8 C 17,2 C 13,3 C 85 % 1015,7 hPa 0,0 l/m 0,00 h 0,00 h 0 W/m 2,1 km/h (1 Bft) 97,87 %
27.09.2023 21:00 19,4 C 18,9 C 14,9 C 84 % 1015,4 hPa 0,0 l/m 0,00 h 0,00 h 0 W/m 6,9 km/h (2 Bft) 98,10 %
27.09.2023 22:00 19,2 C 18,0 C 14,3 C 83 % 1015,4 hPa 0,0 l/m 0,00 h 0,00 h 0 W/m 6,3 km/h (2 Bft) 96,64 %
27.09.2023 23:00 18,7 C 17,8 C 14,0 C 83 % 1014,9 hPa 0,0 l/m 0,00 h 0,00 h 0 W/m 8,5 km/h (2 Bft) 98,30 %
28.09.2023 00:00 18,7 C 17,8 C 13,9 C 84 % 1014,5 hPa 0,0 l/m 0,00 h 0,00 h 0 W/m 9,2 km/h (2 Bft) 97,77 %
28.09.2023 01:00 18,6 C 17,8 C 13,9 C 84 % 1014,3 hPa 0,0 l/m 0,00 h 0,00 h 0 W/m 9,5 km/h (2 Bft) 97,97 %
28.09.2023 02:00 18,5 C 17,6 C 13,9 C 84 % 1014,8 hPa 0,0 l/m 0,00 h 0,00 h 0 W/m 10,1 km/h (2 Bft) 96,59 %
28.09.2023 03:00 18,2 C 17,2 C 13,5 C 85 % 1014,9 hPa 0,0 l/m 0,00 h 0,00 h 0 W/m 6,6 km/h (2 Bft) 98,30 %
28.09.2023 04:00 17,6 C 16,6 C 13,0 C 86 % 1015,1 hPa 0,0 l/m 0,00 h 0,00 h 0 W/m 6,2 km/h (2 Bft) 97,04 %
28.09.2023 05:00 17,0 C 15,9 C 12,2 C 88 % 1015,6 hPa 0,0 l/m 0,00 h 0,00 h 0 W/m 3,4 km/h (1 Bft) 97,23 %
28.09.2023 06:00 16,5 C 15,3 C 11,6 C 89 % 1016,1 hPa 0,0 l/m 0,00 h 0,00 h 0 W/m 1,8 km/h (1 Bft) 97,52 %
28.09.2023 07:00 16,1 C 15,1 C 11,3 C 90 % 1016,4 hPa 0,0 l/m 0,00 h 0,00 h 12 W/m 3,0 km/h (1 Bft) 95,45 %
28.09.2023 08:00 16,5 C 15,9 C 12,2 C 92 % 1017,1 hPa 0,0 l/m 0,00 h 0,00 h 41 W/m 3,8 km/h (1 Bft) 98,40 %
28.09.2023 09:00 17,3 C 17,3 C 13,3 C 92 % 1017,7 hPa 0,0 l/m 0,00 h 0,00 h 92 W/m 6,1 km/h (2 Bft) 97,57 %
28.09.2023 10:00 18,7 C 18,8 C 14,4 C 89 % 1018,1 hPa 0,0 l/m 0,03 h 0,00 h 124 W/m 8,9 km/h (2 Bft) 96,52 %
28.09.2023 11:00 19,9 C 21,4 C 16,7 C 82 % 1018,6 hPa 0,0 l/m 0,40 h 0,00 h 270 W/m 12,8 km/h (3 Bft) 98,09 %
28.09.2023 12:00 20,4 C 20,5 C 16,2 C 80 % 1018,7 hPa 0,0 l/m 0,10 h 0,00 h 212 W/m 9,2 km/h (2 Bft) 97,36 %
28.09.2023 13:00 20,9 C 21,0 C 16,8 C 78 % 1018,5 hPa 0,0 l/m 0,00 h 0,00 h 248 W/m 10,6 km/h (2 Bft) 98,75 %
28.09.2023 14:00 21,4 C 21,7 C 17,3 C 77 % 1018,3 hPa 0,0 l/m 0,40 h 0,00 h 309 W/m 9,3 km/h (2 Bft) 95,73 %
28.09.2023 15:00 21,3 C 21,2 C 17,1 C 78 % 1018,0 hPa 0,0 l/m 0,27 h 0,00 h 235 W/m 9,2 km/h (2 Bft) 98,64 %
28.09.2023 16:00 21,7 C 21,6 C 17,0 C 77 % 1017,5 hPa 0,0 l/m 0,35 h 0,00 h 188 W/m 4,6 km/h (1 Bft) 97,47 %
28.09.2023 17:00 21,6 C 20,9 C 16,7 C 79 % 1017,4 hPa 0,0 l/m 0,00 h 0,00 h 94 W/m 3,9 km/h (1 Bft) 95,84 %
28.09.2023 18:00 21,1 C 20,0 C 15,8 C 81 % 1017,1 hPa 0,0 l/m 0,00 h 0,00 h 35 W/m 0,5 km/h (0 Bft) 98,16 %
28.09.2023 19:00 20,0 C 18,2 C 14,4 C 86 % 1017,0 hPa 0,0 l/m 0,00 h 0,00 h 6 W/m 0,0 km/h (0 Bft) 98,25 %
28.09.2023 20:00 18,9 C 17,5 C 13,8 C 88 % 1017,1 hPa 0,0 l/m 0,00 h 0,00 h 0 W/m 0,1 km/h (0 Bft) 95,59 %
28.09.2023 21:00 18,5 C 17,2 C 13,8 C 90 % 1017,2 hPa 0,0 l/m 0,00 h 0,00 h 0 W/m 1,8 km/h (1 Bft) 98,75 %
28.09.2023 22:00 18,0 C 16,8 C 13,4 C 91 % 1016,9 hPa 0,0 l/m 0,00 h 0,00 h 0 W/m 2,0 km/h (1 Bft) 97,30 %
28.09.2023 23:00 17,5 C 16,4 C 13,0 C 92 % 1016,9 hPa 0,0 l/m 0,00 h 0,00 h 0 W/m 3,2 km/h (1 Bft) 96,27 %
29.09.2023 00:00 17,4 C 16,7 C 13,3 C 93 % 1016,8 hPa 0,0 l/m 0,00 h 0,00 h 0 W/m 3,8 km/h (1 Bft) 99,23 %
29.09.2023 01:00 17,6 C 16,7 C 13,3 C 92 % 1017,0 hPa 0,0 l/m 0,00 h 0,00 h 0 W/m 2,2 km/h (1 Bft) 95,46 %
29.09.2023 02:00 17,6 C 16,7 C 13,3 C 92 % 1017,0 hPa 0,0 l/m 0,00 h 0,00 h 0 W/m 2,7 km/h (1 Bft) 97,68 %
29.09.2023 03:00 17,7 C 16,7 C 13,3 C 92 % 1016,5 hPa 0,0 l/m 0,00 h 0,00 h 0 W/m 3,5 km/h (1 Bft) 98,16 %
29.09.2023 04:00 17,7 C 16,7 C 13,3 C 92 % 1016,2 hPa 0,0 l/m 0,00 h 0,00 h 0 W/m 3,1 km/h (1 Bft) 96,16 %
29.09.2023 05:00 17,6 C 16,7 C 13,3 C 93 % 1015,8 hPa 0,0 l/m 0,00 h 0,07 h 0 W/m 5,2 km/h (1 Bft) 97,30 %
29.09.2023 06:00 17,6 C 16,7 C 13,0 C 94 % 1015,2 hPa 0,0 l/m 0,00 h 0,03 h 0 W/m 5,4 km/h (1 Bft) 99,16 %
29.09.2023 07:00 17,6 C 16,7 C 13,3 C 94 % 1014,9 hPa 0,0 l/m 0,00 h 0,00 h 6 W/m 8,4 km/h (2 Bft) 94,09 %
29.09.2023 08:00 17,8 C 17,1 C 13,6 C 94 % 1014,8 hPa 0,0 l/m 0,00 h 0,00 h 36 W/m 6,4 km/h (2 Bft) 96,87 %
29.09.2023 09:00 18,6 C 18,4 C 14,5 C 93 % 1014,7 hPa 0,0 l/m 0,00 h 0,00 h 91 W/m 10,9 km/h (2 Bft) 97,58 %
29.09.2023 10:00 19,9 C 20,2 C 15,9 C 90 % 1015,0 hPa 0,0 l/m 0,13 h 0,00 h 152 W/m 11,1 km/h (2 Bft) 96,14 %
29.09.2023 11:00 22,0 C 22,4 C 17,9 C 81 % 1015,5 hPa 0,0 l/m 0,10 h 0,00 h 198 W/m 20,9 km/h (4 Bft) 98,38 %
29.09.2023 12:00 22,7 C 22,9 C 18,2 C 77 % 1016,0 hPa 0,0 l/m 0,13 h 0,00 h 241 W/m 18,7 km/h (3 Bft) 98,21 %
29.09.2023 13:00 23,0 C 22,8 C 18,3 C 76 % 1016,4 hPa 0,0 l/m 0,13 h 0,00 h 199 W/m 18,5 km/h (3 Bft) 96,03 %
29.09.2023 14:00 22,3 C 21,6 C 17,6 C 80 % 1016,8 hPa 0,0 l/m 0,00 h 0,00 h 124 W/m 16,8 km/h (3 Bft) 98,88 %
29.09.2023 15:00 20,9 C 20,6 C 16,3 C 89 % 1017,4 hPa 0,2 l/m 0,37 h 0,17 h 249 W/m 17,4 km/h (3 Bft) 96,61 %
29.09.2023 16:00 20,4 C 19,3 C 15,1 C 91 % 1017,9 hPa 2,0 l/m 0,00 h 0,57 h 58 W/m 15,9 km/h (3 Bft) 98,30 %
29.09.2023 17:00 18,5 C 18,0 C 13,3 C 95 % 1019,1 hPa 0,0 l/m 0,33 h 0,00 h 117 W/m 24,9 km/h (4 Bft) 96,95 %
29.09.2023 18:00 17,9 C 17,3 C 12,5 C 91 % 1020,6 hPa 0,0 l/m 0,00 h 0,00 h 27 W/m 23,6 km/h (4 Bft) 99,93 %
29.09.2023 19:00 17,5 C 16,7 C 13,1 C 89 % 1021,9 hPa 0,0 l/m 0,00 h 0,00 h 5 W/m 10,7 km/h (2 Bft) 97,23 %
29.09.2023 20:00 17,1 C 16,3 C 12,8 C 90 % 1023,1 hPa 0,0 l/m 0,00 h 0,00 h 0 W/m 8,2 km/h (2 Bft) 97,59 %
29.09.2023 21:00 16,1 C 14,9 C 11,6 C 90 % 1024,0 hPa 0,0 l/m 0,00 h 0,00 h 0 W/m 7,8 km/h (2 Bft) 97,47 %
29.09.2023 22:00 15,1 C 13,7 C 10,7 C 91 % 1024,6 hPa 0,0 l/m 0,00 h 0,00 h 0 W/m 2,9 km/h (1 Bft) 96,70 %
29.09.2023 23:00 14,1 C 12,6 C 9,7 C 93 % 1025,1 hPa 0,0 l/m 0,00 h 0,00 h 0 W/m 0,8 km/h (0 Bft) 98,93 %
30.09.2023 00:00 13,3 C 11,9 C 9,0 C 94 % 1025,5 hPa 0,0 l/m 0,00 h 0,00 h 0 W/m 0,0 km/h (0 Bft) 94,92 %
30.09.2023 01:00 12,7 C 11,5 C 8,7 C 95 % 1025,5 hPa 0,0 l/m 0,00 h 0,00 h 0 W/m 0,0 km/h (0 Bft) 98,90 %
30.09.2023 02:00 12,3 C 11,5 C 8,7 C 96 % 1025,8 hPa 0,0 l/m 0,00 h 0,00 h 0 W/m 0,0 km/h (0 Bft) 97,30 %
30.09.2023 03:00 12,3 C 11,6 C 8,7 C 97 % 1026,0 hPa 0,0 l/m 0,00 h 0,00 h 0 W/m 0,2 km/h (0 Bft) 97,41 %
30.09.2023 04:00 11,8 C 10,7 C 7,9 C 96 % 1026,2 hPa 0,0 l/m 0,00 h 0,00 h 0 W/m 0,1 km/h (0 Bft) 97,17 %
30.09.2023 05:00 11,3 C 10,1 C 7,5 C 96 % 1026,2 hPa 0,0 l/m 0,00 h 0,00 h 0 W/m 0,0 km/h (0 Bft) 97,52 %
30.09.2023 06:00 10,8 C 9,8 C 7,2 C 97 % 1026,2 hPa 0,2 l/m 0,00 h 0,00 h 0 W/m 0,1 km/h (0 Bft) 98,59 %
30.09.2023 07:00 10,4 C 9,5 C 6,8 C 97 % 1026,5 hPa 0,0 l/m 0,00 h 0,00 h 8 W/m 0,1 km/h (0 Bft) 96,78 %
30.09.2023 08:00 10,6 C 10,2 C 7,4 C 97 % 1026,9 hPa 0,0 l/m 0,00 h 0,00 h 34 W/m 1,0 km/h (0 Bft) 97,09 %
30.09.2023 09:00 11,8 C 12,0 C 8,7 C 98 % 1027,4 hPa 0,0 l/m 0,00 h 0,00 h 80 W/m 2,3 km/h (1 Bft) 97,64 %
30.09.2023 10:00 13,4 C 14,7 C 10,6 C 99 % 1027,9 hPa 0,0 l/m 0,13 h 0,00 h 113 W/m 4,8 km/h (1 Bft) 97,02 %
30.09.2023 11:00 15,7 C 21,3 C 13,3 C 96 % 1027,6 hPa 0,0 l/m 0,43 h 0,00 h 304 W/m 9,0 km/h (2 Bft) 98,55 %
30.09.2023 12:00 18,0 C 18,8 C 13,8 C 81 % 1027,9 hPa 0,0 l/m 0,07 h 0,00 h 185 W/m 8,9 km/h (2 Bft) 96,55 %
30.09.2023 13:00 18,4 C 18,3 C 13,8 C 77 % 1027,6 hPa 0,0 l/m 0,20 h 0,00 h 197 W/m 6,7 km/h (2 Bft) 97,46 %
30.09.2023 14:00 19,4 C 20,1 C 14,3 C 70 % 1027,1 hPa 0,0 l/m 0,92 h 0,00 h 552 W/m 8,8 km/h (2 Bft) 97,28 %
30.09.2023 15:00 19,8 C 19,5 C 14,7 C 68 % 1026,7 hPa 0,0 l/m 0,72 h 0,00 h 351 W/m 7,0 km/h (2 Bft) 96,91 %
30.09.2023 16:00 19,3 C 18,9 C 14,4 C 69 % 1026,2 hPa 0,0 l/m 0,82 h 0,00 h 242 W/m 4,8 km/h (1 Bft) 96,16 %
30.09.2023 17:00 19,0 C 18,3 C 13,7 C 71 % 1025,9 hPa 0,0 l/m 0,32 h 0,00 h 123 W/m 3,0 km/h (1 Bft) 99,45 %
30.09.2023 18:00 18,3 C 16,7 C 12,5 C 75 % 1025,8 hPa 0,0 l/m 0,00 h 0,00 h 41 W/m 0,7 km/h (0 Bft) 95,81 %
30.09.2023 19:00 16,7 C 14,1 C 10,7 C 84 % 1026,0 hPa 0,0 l/m 0,00 h 0,00 h 6 W/m 0,0 km/h (0 Bft) 98,41 %
30.09.2023 20:00 15,0 C 12,9 C 9,6 C 89 % 1026,1 hPa 0,0 l/m 0,00 h 0,00 h 0 W/m 0,0 km/h (0 Bft) 97,36 %
30.09.2023 21:00 14,0 C 12,3 C 9,4 C 91 % 1025,9 hPa 0,0 l/m 0,00 h 0,00 h 0 W/m 0,0 km/h (0 Bft) 95,03 %
30.09.2023 22:00 13,5 C 12,3 C 9,2 C 93 % 1025,7 hPa 0,0 l/m 0,00 h 0,00 h 0 W/m 0,2 km/h (0 Bft) 97,63 %
30.09.2023 23:00 12,8 C 11,2 C 8,4 C 94 % 1025,8 hPa 0,0 l/m 0,00 h 0,00 h 0 W/m 0,0 km/h (0 Bft) 97,00 %
01.10.2023 00:00 12,1 C 10,8 C 7,8 C 94 % 1025,7 hPa 0,0 l/m 0,00 h 0,00 h 0 W/m 0,3 km/h (0 Bft) 97,55 %
01.10.2023 01:00 11,9 C 11,2 C 8,3 C 95 % 1025,4 hPa 0,0 l/m 0,00 h 0,00 h 0 W/m 2,3 km/h (1 Bft) 95,83 %
01.10.2023 02:00 11,8 C 11,1 C 8,3 C 96 % 1025,2 hPa 0,0 l/m 0,00 h 0,00 h 0 W/m 2,5 km/h (1 Bft) 98,88 %
01.10.2023 03:00 11,5 C 10,7 C 7,9 C 96 % 1025,0 hPa 0,0 l/m 0,00 h 0,00 h 0 W/m 1,0 km/h (0 Bft) 95,33 %
01.10.2023 04:00 11,1 C 10,0 C 7,3 C 96 % 1024,7 hPa 0,0 l/m 0,00 h 0,00 h 0 W/m 0,8 km/h (0 Bft) 96,90 %
01.10.2023 05:00 11,0 C 10,2 C 7,8 C 96 % 1024,7 hPa 0,0 l/m 0,00 h 0,00 h 0 W/m 3,4 km/h (1 Bft) 97,26 %
01.10.2023 06:00 10,8 C 10,0 C 7,2 C 96 % 1024,7 hPa 0,0 l/m 0,00 h 0,00 h 0 W/m 4,1 km/h (1 Bft) 98,55 %
01.10.2023 07:00 10,7 C 10,0 C 7,2 C 96 % 1024,7 hPa 0,0 l/m 0,00 h 0,00 h 5 W/m 5,3 km/h (1 Bft) 96,59 %
01.10.2023 08:00 10,9 C 10,5 C 7,5 C 96 % 1024,8 hPa 0,0 l/m 0,00 h 0,00 h 19 W/m 5,0 km/h (1 Bft) 97,36 %
01.10.2023 09:00 12,1 C 12,6 C 9,0 C 97 % 1024,9 hPa 0,0 l/m 0,00 h 0,00 h 37 W/m 4,3 km/h (1 Bft) 95,90 %
01.10.2023 10:00 14,5 C 15,8 C 11,0 C 95 % 1025,0 hPa 0,0 l/m 0,07 h 0,00 h 97 W/m 7,1 km/h (2 Bft) 97,08 %
01.10.2023 11:00 17,9 C 24,4 C 13,8 C 86 % 1024,9 hPa 0,0 l/m 0,37 h 0,00 h 246 W/m 8,7 km/h (2 Bft) 98,37 %
01.10.2023 12:00 20,7 C 21,4 C 15,5 C 77 % 1024,6 hPa 0,0 l/m 0,10 h 0,00 h 169 W/m 15,1 km/h (3 Bft) 97,21 %
01.10.2023 13:00 21,9 C 21,3 C 16,2 C 73 % 1024,3 hPa 0,0 l/m 0,03 h 0,00 h 114 W/m 15,3 km/h (3 Bft) 96,36 %
01.10.2023 14:00 23,2 C 23,3 C 17,0 C 68 % 1023,6 hPa 0,0 l/m 0,98 h 0,00 h 570 W/m 14,7 km/h (3 Bft) 98,14 %
01.10.2023 15:00 24,1 C 23,4 C 17,5 C 64 % 1023,1 hPa 0,0 l/m 1,00 h 0,00 h 480 W/m 13,3 km/h (3 Bft) 98,30 %
01.10.2023 16:00 24,4 C 23,8 C 18,3 C 62 % 1022,6 hPa 0,0 l/m 1,00 h 0,00 h 415 W/m 13,8 km/h (3 Bft) 95,58 %
01.10.2023 17:00 24,2 C 23,2 C 17,6 C 63 % 1022,2 hPa 0,0 l/m 0,68 h 0,00 h 164 W/m 11,4 km/h (2 Bft) 99,70 %
01.10.2023 18:00 23,1 C 21,4 C 15,8 C 68 % 1021,9 hPa 0,0 l/m 0,13 h 0,00 h 34 W/m 3,9 km/h (1 Bft) 96,10 %
01.10.2023 19:00 21,8 C 19,6 C 14,2 C 71 % 1021,9 hPa 0,0 l/m 0,00 h 0,00 h 7 W/m 1,3 km/h (1 Bft) 97,80 %
01.10.2023 20:00 20,4 C 18,6 C 13,7 C 75 % 1022,0 hPa 0,0 l/m 0,00 h 0,00 h 0 W/m 1,4 km/h (1 Bft) 98,30 %
01.10.2023 21:00 19,2 C 16,8 C 12,4 C 80 % 1022,0 hPa 0,0 l/m 0,00 h 0,00 h 0 W/m 0,3 km/h (0 Bft) 96,40 %
01.10.2023 22:00 18,1 C 16,0 C 11,9 C 84 % 1021,8 hPa 0,0 l/m 0,00 h 0,00 h 0 W/m 0,2 km/h (0 Bft) 97,95 %
01.10.2023 23:00 17,1 C 15,4 C 11,5 C 88 % 1021,8 hPa 0,0 l/m 0,00 h 0,00 h 0 W/m 0,4 km/h (0 Bft) 98,92 %
Min-Datum _ 30.09.23 30.09.23 30.09.23 25.09.23 28.09.23 - - - - 25.09.23 26.09.23
_ Min-Zeit 07:46 06:30 07:14 17:14 01:20 - - - - 00:00 20:28
Minimum _ 10,2 C 9,4 C 6,7 C 54 % 1013,9 hPa - - - - 0,0 km/h (0 Bft) 25,93 %
Max-Datum _ 01.10.23 26.09.23 27.09.23 30.09.23 30.09.23 29.09.23 27.09.23 29.09.23 27.09.23 29.09.23 25.09.23
_ Max-Zeit 16:50 11:48 11:40 09:50 12:48 16:20 14:10 15:08 14:26 18:15 00:02
Maximum _ 24,6 C 29,4 C 20,6 C 99 % 1028,1 hPa 2,0 l/m 0,08 h 0,07 h 766 W/m 45,1 km/h
W-NW (6 Bft)
100,00 %
Durchschnitt _ 17,1 C 16,5 C 12,4 C 85 % 1021,1 hPa #2,4 l/m #24:13 h #50 min. 172 W/m 5,6 km/h (1 Bft) 97,36 %
© 2023 W. Hausmann